• Join FlightAware (Why Join?)
  • Login
  • US Flag 
Rudolph Flight #1: Arrived! 
06:33AM EST


 

Airport Tracker/Info


-or-


 

Live Flight TrackerFlight Track Log ✈ GGN7281 ✈ 01-May-2013 ✈ KALB - CYYZ

Flight Track Log - Related Links

Times and Time Zones

All times are in EDT time to prevent confusion due to time zone crossing. See the GGN7281 flight status page for this flight to view local times or setup timezone preferences in your user account.

Time Position Orientation Groundspeed Altitude Reporting Facility
EDT Latitude Longitude Course Direction KTS MPH feet Rate Location/Type
12:05PM 42.7381 -73.8111 171° South 141 162 900  Level Boston Center
12:06PM 42.7236 -73.8081 171° South 147 169 1,500 1,680 Climbing Boston Center
12:07PM 42.7164 -73.8700 261° West 205 236 3,100 1,740 Climbing Boston Center
12:08PM 42.7361 -73.9636 286° West 196 226 5,700 1,620 Climbing Boston Center
12:09PM 42.7517 -74.0406 285° West 206 237 7,100 1,260 Climbing Boston Center
12:10PM 42.7714 -74.1172 289° West 206 237 8,300 1,200 Climbing Boston Center
12:11PM 42.7869 -74.2025 284° West 225 259 9,600 1,200 Climbing Boston Center
12:12PM 42.7939 -74.2906 276° West 233 268 10,800 1,200 Climbing Boston Center
12:13PM 42.7944 -74.3783 271° West 233 268 12,000 1,080 Climbing Boston Center
12:14PM 42.7992 -74.4633 274° West 233 268 13,000 1,200 Climbing Boston Center
12:15PM 42.8039 -74.5511 274° West 233 268 14,400 1,260 Climbing Boston Center
12:16PM 42.8083 -74.6419 274° West 233 268 15,600 1,200 Climbing Boston Center
12:17PM 42.8150 -74.7300 276° West 233 268 16,900 1,140 Climbing Boston Center
12:18PM 42.8175 -74.8150 272° West 242 278 17,900 780 Climbing Boston Center
12:19PM 42.8197 -74.9086 272° West 247 284 18,500 840 Climbing Boston Center
12:20PM 42.8239 -75.0022 274° West 252 290 19,600 660 Climbing Boston Center
12:21PM 42.8300 -75.1014 275° West 252 290 19,900 180 Climbing Boston Center
12:22PM 42.8358 -75.2036 274° West 264 304 20,000  Climbing Boston Center
12:23PM 42.8394 -75.3086 273° West 277 319 20,000  Level Boston Center
12:24PM 42.8431 -75.4136 273° West 277 319 20,000  Level Boston Center
12:25PM 42.8467 -75.5156 273° West 277 319 20,000  Level Boston Center
12:26PM 42.8500 -75.6178 273° West 277 319 20,000  Level Boston Center
12:27PM 42.8575 -75.7231 276° West 277 319 20,000 -60 Level Boston Center
12:28PM 42.8606 -75.8281 272° West 277 319 19,900  Descending Boston Center
12:29PM 42.8636 -75.9331 272° West 277 319 20,100  Climbing Boston Center
12:30PM 42.8669 -76.0325 273° West 277 319 20,000  Descending Boston Center
12:32PM 42.8728 -76.2453 272° West 273 314 20,100 -60 Climbing Cleveland Center
12:33PM 42.8744 -76.3472 271° West 273 314 19,900 -60 Descending Cleveland Center
12:34PM 42.8825 -76.4517 276° West 273 314 20,000  Climbing Cleveland Center
12:35PM 42.8839 -76.5508 271° West 273 314 19,900  Descending Cleveland Center
12:36PM 42.8875 -76.6553 273° West 273 314 20,000  Climbing Cleveland Center
12:37PM 42.9031 -76.7481 283° West 273 314 19,900  Descending Cleveland Center
12:38PM 42.9208 -76.8489 284° West 273 314 20,000  Climbing Cleveland Center
12:39PM 42.9389 -76.9500 284° West 273 314 20,000  Level Cleveland Center
12:40PM 42.9567 -77.0539 283° West 278 320 20,000  Level Cleveland Center
12:41PM 42.9722 -77.1553 282° West 278 320 20,000  Level Cleveland Center
12:42PM 42.9897 -77.2567 283° West 278 320 20,000 -120 Level Cleveland Center
12:43PM 43.0072 -77.3578 283° West 278 320 19,800 -720 Descending Cleveland Center
12:44PM 43.0247 -77.4678 282° West 283 326 18,600 -1,020 Descending Cleveland Center
12:45PM 43.0381 -77.5722 280° West 283 326 17,800 -900 Descending Cleveland Center
12:46PM 43.0489 -77.6767 278° West 283 326 16,800 -1,080 Descending Cleveland Center
12:47PM 43.0661 -77.7839 282° West 288 331 15,700 -1,140 Descending Cleveland Center
12:48PM 43.0853 -77.8856 285° West 288 331 14,600 -900 Descending Cleveland Center
12:49PM 43.1003 -77.9900 281° West 288 331 14,000 -300 Descending Cleveland Center
12:50PM 43.1147 -78.0861 282° West 277 319 14,000  Level Cleveland Center
12:51PM 43.1294 -78.1850 282° West 264 304 14,100  Climbing Cleveland Center
12:52PM 43.1439 -78.2869 281° West 264 304 14,000 -60 Descending Cleveland Center
12:53PM 43.1606 -78.3917 282° West 264 304 14,000  Level Cleveland Center
12:54PM 43.1808 -78.4792 288° West 264 304 14,000  Level Cleveland Center
12:55PM 43.1931 -78.5758 280° West 275 316 14,000  Level Cleveland Center
12:56PM 43.2031 -78.6750 278° West 275 316 14,000  Level Cleveland Center
12:57PM 43.2172 -78.7744 281° West 275 316 14,000 -480 Level Cleveland Center
12:58PM 43.2333 -78.9000 280° West 270 311 12,900 -960 Descending Toronto Center
12:59PM 43.2500 -79.0167 281° West 280 322 11,600 -1,320 Descending Toronto Center